createdAt,value
2023-03-24T00:01:19.057Z,7.10
2023-03-24T00:03:48.729Z,7.10
2023-03-24T00:06:18.741Z,7.10
2023-03-24T00:08:48.516Z,7.10
2023-03-24T00:11:21.042Z,7.10
2023-03-24T00:13:50.418Z,7.10
2023-03-24T00:16:20.009Z,7.10
2023-03-24T00:18:52.760Z,7.10
2023-03-24T00:21:23.587Z,7.10
2023-03-24T00:23:55.471Z,7.10
2023-03-24T00:26:25.224Z,7.10
2023-03-24T00:28:53.849Z,7.10
2023-03-24T00:31:22.136Z,7.10
2023-03-24T00:33:51.075Z,7.10
2023-03-24T00:36:21.006Z,7.10
2023-03-24T00:38:50.147Z,7.10
2023-03-24T00:41:21.300Z,7.10
2023-03-24T00:43:50.943Z,7.10
2023-03-24T00:46:28.513Z,7.10
2023-03-24T00:49:02.199Z,7.10
2023-03-24T00:51:32.890Z,7.10
2023-03-24T00:54:01.900Z,7.10
2023-03-24T00:56:32.859Z,7.10
2023-03-24T00:59:02.472Z,7.10
2023-03-24T01:01:36.542Z,7.10
2023-03-24T01:04:06.790Z,7.10
2023-03-24T01:06:36.563Z,7.10
2023-03-24T01:09:05.891Z,7.10
2023-03-24T01:11:39.776Z,7.10
2023-03-24T01:14:08.631Z,7.00
2023-03-24T01:16:36.683Z,7.00
2023-03-24T01:19:05.241Z,7.00
2023-03-24T01:21:34.985Z,7.10
2023-03-24T01:24:03.210Z,7.00
2023-03-24T01:26:31.122Z,7.00
2023-03-24T01:29:25.952Z,7.10
2023-03-24T01:32:19.314Z,7.10
2023-03-24T01:35:12.672Z,7.00
2023-03-24T01:37:41.040Z,7.00
2023-03-24T01:40:10.362Z,7.60
2023-03-24T01:42:40.039Z,7.10
2023-03-24T01:45:45.199Z,7.10
2023-03-24T01:48:17.629Z,7.10
2023-03-24T01:50:50.155Z,7.10
2023-03-24T01:53:18.350Z,7.20
2023-03-24T01:55:48.887Z,7.20
2023-03-24T01:58:19.311Z,7.20
2023-03-24T02:00:52.957Z,7.20
2023-03-24T02:03:25.695Z,7.30
2023-03-24T02:05:57.614Z,7.20
2023-03-24T02:08:31.586Z,7.20
2023-03-24T02:11:01.660Z,7.20
2023-03-24T02:13:30.913Z,7.20
2023-03-24T02:16:13.598Z,7.30
2023-03-24T02:18:52.658Z,7.30
2023-03-24T02:21:53.132Z,7.30
2023-03-24T02:24:50.567Z,7.30
2023-03-24T02:27:41.720Z,7.30
2023-03-24T02:30:27.534Z,7.30
2023-03-24T02:33:42.930Z,7.30
2023-03-24T02:36:54.528Z,7.30
2023-03-24T02:39:47.916Z,7.30
2023-03-24T02:42:26.742Z,7.80
2023-03-24T02:45:05.470Z,7.30
2023-03-24T02:47:47.758Z,7.30
2023-03-24T02:50:23.022Z,7.40
2023-03-24T02:53:16.641Z,7.30
2023-03-24T02:55:53.577Z,7.30
2023-03-24T02:58:29.031Z,7.20
2023-03-24T03:01:03.495Z,7.30
2023-03-24T03:03:35.722Z,7.20
2023-03-24T03:06:08.178Z,7.30
2023-03-24T03:08:38.295Z,7.40
2023-03-24T03:11:15.389Z,7.30
2023-03-24T03:13:50.942Z,7.20
2023-03-24T03:16:38.370Z,7.30
2023-03-24T03:19:15.139Z,7.30
2023-03-24T03:21:45.156Z,7.30
2023-03-24T03:24:20.001Z,7.30
2023-03-24T03:26:50.841Z,7.30
2023-03-24T03:29:22.953Z,7.30
2023-03-24T03:31:59.161Z,7.30
2023-03-24T03:34:35.893Z,7.30
2023-03-24T03:37:10.251Z,7.30
2023-03-24T03:39:41.661Z,7.40
2023-03-24T03:42:10.997Z,7.30
2023-03-24T03:44:38.994Z,7.20
2023-03-24T03:47:06.982Z,7.30
2023-03-24T03:49:34.929Z,7.30
2023-03-24T03:52:03.006Z,7.30
2023-03-24T03:54:34.165Z,7.40
2023-03-24T03:57:02.604Z,7.40
2023-03-24T03:59:34.363Z,7.40
2023-03-24T04:02:14.188Z,7.30
2023-03-24T04:05:06.003Z,7.40
2023-03-24T04:07:44.905Z,7.40
2023-03-24T04:10:21.070Z,7.40
2023-03-24T04:13:06.613Z,7.40
2023-03-24T04:15:43.475Z,7.40
2023-03-24T04:18:33.401Z,7.40
2023-03-24T04:21:12.921Z,7.40
2023-03-24T04:23:49.901Z,7.30
2023-03-24T04:26:26.532Z,7.30
2023-03-24T04:29:05.760Z,7.30
2023-03-24T04:31:38.196Z,7.20
2023-03-24T04:34:14.189Z,7.00
2023-03-24T04:36:44.363Z,7.00
2023-03-24T04:39:16.234Z,7.00
2023-03-24T04:41:45.442Z,7.00
2023-03-24T04:44:21.828Z,7.00
2023-03-24T04:46:51.815Z,7.00
2023-03-24T04:49:20.266Z,7.00
2023-03-24T04:51:48.127Z,7.10
2023-03-24T04:54:16.036Z,7.10
2023-03-24T04:56:47.683Z,7.10
2023-03-24T04:59:16.244Z,7.10
2023-03-24T05:01:49.486Z,7.10
2023-03-24T05:04:19.212Z,7.10
2023-03-24T05:06:49.569Z,7.10
2023-03-24T05:09:18.733Z,7.20
2023-03-24T05:11:47.066Z,7.20
2023-03-24T05:14:15.353Z,7.20
2023-03-24T05:16:43.416Z,7.20
2023-03-24T05:19:11.664Z,7.20
2023-03-24T05:21:40.910Z,7.20
2023-03-24T05:24:09.558Z,7.20
2023-03-24T05:26:37.442Z,7.70
2023-03-24T05:29:05.335Z,7.20
2023-03-24T05:31:33.228Z,7.20
2023-03-24T05:34:01.227Z,7.20
2023-03-24T05:36:29.131Z,7.20
2023-03-24T05:38:58.367Z,7.30
2023-03-24T05:41:26.355Z,7.30
2023-03-24T05:43:54.286Z,7.30
2023-03-24T05:46:24.554Z,7.30
2023-03-24T05:48:53.837Z,7.30
2023-03-24T05:51:21.802Z,7.30
2023-03-24T05:53:49.707Z,7.30
2023-03-24T05:56:19.138Z,7.30
2023-03-24T05:58:47.021Z,7.30
2023-03-24T06:01:18.295Z,7.30
2023-03-24T06:03:46.410Z,7.30
2023-03-24T06:06:16.504Z,7.30
2023-03-24T06:08:45.894Z,7.30
2023-03-24T06:11:14.037Z,7.30
2023-03-24T06:13:43.596Z,7.30
2023-03-24T06:16:11.757Z,7.30
2023-03-24T06:18:42.582Z,7.30
2023-03-24T06:21:10.685Z,7.30
2023-03-24T06:23:38.887Z,7.30
2023-03-24T06:26:11.459Z,7.30
2023-03-24T06:28:40.007Z,7.30
2023-03-24T06:31:14.708Z,7.30
2023-03-24T06:33:43.501Z,7.80
2023-03-24T06:36:12.840Z,7.30
2023-03-24T06:38:41.857Z,7.40
2023-03-24T06:41:10.571Z,7.30
2023-03-24T06:43:38.576Z,7.30
2023-03-24T06:46:06.932Z,7.40
2023-03-24T06:48:36.626Z,7.40
2023-03-24T06:51:04.811Z,7.40
2023-03-24T06:53:32.756Z,7.40
2023-03-24T06:56:01.056Z,7.50
2023-03-24T06:58:29.045Z,7.40
2023-03-24T07:00:57.400Z,7.40
2023-03-24T07:03:25.448Z,7.40
2023-03-24T07:05:55.451Z,7.50
2023-03-24T07:08:37.618Z,7.50
2023-03-24T07:11:07.516Z,7.50
2023-03-24T07:13:35.558Z,7.50
2023-03-24T07:16:03.603Z,7.70
2023-03-24T07:18:31.542Z,7.60
2023-03-24T07:21:01.551Z,7.70
2023-03-24T07:23:30.320Z,7.60
2023-03-24T07:25:58.186Z,7.60
2023-03-24T07:28:27.472Z,7.60
2023-03-24T07:30:55.714Z,7.60
2023-03-24T07:33:24.811Z,7.60
2023-03-24T07:35:57.118Z,7.60
2023-03-24T07:38:26.445Z,7.70
2023-03-24T07:40:54.372Z,7.60
2023-03-24T07:43:22.777Z,7.60
2023-03-24T07:45:51.038Z,8.30
2023-03-24T07:48:19.080Z,7.80
2023-03-24T07:50:47.150Z,7.70
2023-03-24T07:53:19.942Z,7.80
2023-03-24T07:55:49.685Z,7.80
2023-03-24T07:58:17.971Z,7.80
2023-03-24T08:00:46.135Z,7.80
2023-03-24T08:03:15.633Z,7.80
2023-03-24T08:05:46.190Z,7.80
2023-03-24T08:08:14.230Z,7.80
2023-03-24T08:10:42.709Z,7.80
2023-03-24T08:13:12.412Z,7.80
2023-03-24T08:15:40.345Z,7.80
2023-03-24T08:18:08.350Z,7.90
2023-03-24T08:20:36.326Z,7.80
2023-03-24T08:23:04.564Z,7.80
2023-03-24T08:25:33.046Z,7.80
2023-03-24T08:28:00.968Z,7.90
2023-03-24T08:30:30.497Z,7.90
2023-03-24T08:33:00.369Z,7.90
2023-03-24T08:35:31.418Z,7.90
2023-03-24T08:38:01.115Z,7.90
2023-03-24T08:40:31.914Z,7.90
2023-03-24T08:43:03.215Z,7.90
2023-03-24T08:45:33.413Z,8.00
2023-03-24T08:48:03.067Z,8.00
2023-03-24T08:50:35.084Z,8.10
2023-03-24T08:53:04.026Z,8.10
2023-03-24T08:55:32.087Z,8.10
2023-03-24T08:57:59.974Z,8.00
2023-03-24T09:00:28.803Z,8.10
2023-03-24T09:02:58.475Z,8.20
2023-03-24T09:05:40.975Z,8.20
2023-03-24T09:08:12.354Z,8.20
2023-03-24T09:10:40.780Z,8.30
2023-03-24T09:13:08.816Z,8.30
2023-03-24T09:15:37.158Z,8.20
2023-03-24T09:18:06.853Z,8.20
2023-03-24T09:20:34.861Z,8.20
2023-03-24T09:23:02.774Z,8.20
2023-03-24T09:25:30.720Z,8.20
2023-03-24T09:27:58.602Z,8.30
2023-03-24T09:30:27.705Z,8.30
2023-03-24T09:32:58.940Z,8.40
2023-03-24T09:35:28.936Z,8.40
2023-03-24T09:37:57.585Z,8.40
2023-03-24T09:40:27.745Z,8.40
2023-03-24T09:43:01.001Z,8.40
2023-03-24T09:45:31.910Z,8.40
2023-03-24T09:48:04.552Z,8.40
2023-03-24T09:50:36.341Z,8.50
2023-03-24T09:53:09.810Z,8.50
2023-03-24T09:55:40.400Z,8.40
2023-03-24T09:58:09.283Z,8.40
2023-03-24T10:00:38.281Z,8.50
2023-03-24T10:03:16.679Z,8.50
2023-03-24T10:05:52.626Z,8.50
2023-03-24T10:08:29.451Z,8.40
2023-03-24T10:11:03.015Z,8.40
2023-03-24T10:13:40.193Z,8.40
2023-03-24T10:16:15.934Z,8.40
2023-03-24T10:18:50.698Z,8.40
2023-03-24T10:21:22.950Z,8.50
2023-03-24T10:23:59.464Z,8.50
2023-03-24T10:26:39.156Z,8.50
2023-03-24T10:29:23.500Z,8.50
2023-03-24T10:31:54.041Z,8.50
2023-03-24T10:34:25.988Z,8.70
2023-03-24T10:36:57.549Z,8.70
2023-03-24T10:39:34.285Z,8.70
2023-03-24T10:42:18.275Z,8.60
2023-03-24T10:44:48.719Z,8.60
2023-03-24T10:47:27.120Z,8.70
2023-03-24T10:49:57.999Z,8.70
2023-03-24T10:52:28.161Z,8.70
2023-03-24T10:54:58.398Z,8.70
2023-03-24T10:57:28.530Z,8.70
2023-03-24T10:59:59.642Z,8.70
2023-03-24T11:02:31.191Z,8.70
2023-03-24T11:05:02.521Z,8.70
2023-03-24T11:07:36.508Z,8.70
2023-03-24T11:10:08.435Z,8.70
2023-03-24T11:12:39.010Z,8.70
2023-03-24T11:15:22.025Z,8.80
2023-03-24T11:17:57.105Z,8.90
2023-03-24T11:20:30.371Z,8.70
2023-03-24T11:23:02.354Z,8.90
2023-03-24T11:25:34.168Z,8.90
2023-03-24T11:28:05.075Z,8.90
2023-03-24T11:30:36.040Z,8.90
2023-03-24T11:33:06.292Z,8.90
2023-03-24T11:35:41.824Z,8.90
2023-03-24T11:38:17.427Z,8.90
2023-03-24T11:40:58.116Z,8.90
2023-03-24T11:43:27.134Z,8.90
2023-03-24T11:46:00.996Z,8.90
2023-03-24T11:48:34.639Z,8.80
2023-03-24T11:51:04.081Z,8.90
2023-03-24T11:53:41.628Z,8.90
2023-03-24T11:56:17.785Z,8.90
2023-03-24T11:58:48.811Z,8.90
2023-03-24T12:01:27.516Z,8.80
2023-03-24T12:04:08.639Z,8.80
2023-03-24T12:06:48.003Z,8.80
2023-03-24T12:09:23.625Z,8.80
2023-03-24T12:12:12.209Z,8.80
2023-03-24T12:15:17.605Z,8.90
2023-03-24T12:18:05.829Z,8.90
2023-03-24T12:20:39.094Z,8.90
2023-03-24T12:23:13.894Z,8.90
2023-03-24T12:26:03.891Z,8.90
2023-03-24T12:28:44.275Z,8.90
2023-03-24T12:31:51.885Z,8.90
2023-03-24T12:34:58.614Z,8.90
2023-03-24T12:37:32.176Z,8.80
2023-03-24T12:40:18.617Z,8.80
2023-03-24T12:42:48.250Z,8.90
2023-03-24T12:45:38.659Z,8.90
2023-03-24T12:48:39.371Z,9.00
2023-03-24T12:51:18.662Z,8.90
2023-03-24T12:53:59.477Z,8.90
2023-03-24T12:56:34.422Z,8.90
2023-03-24T12:59:09.590Z,8.90
2023-03-24T13:01:40.793Z,8.80
2023-03-24T13:04:12.902Z,8.90
2023-03-24T13:06:49.695Z,8.90
2023-03-24T13:09:29.589Z,8.80
2023-03-24T13:12:01.485Z,8.80
2023-03-24T13:14:35.241Z,8.80
2023-03-24T13:17:07.418Z,8.80
2023-03-24T13:19:38.680Z,8.80
2023-03-24T13:22:11.489Z,8.80
2023-03-24T13:24:39.799Z,8.70
2023-03-24T13:27:15.046Z,8.80
2023-03-24T13:30:21.971Z,8.80
2023-03-24T13:32:54.380Z,8.70
2023-03-24T13:35:36.050Z,8.80
2023-03-24T13:38:10.164Z,8.80
2023-03-24T13:40:41.144Z,8.80
2023-03-24T13:43:13.909Z,8.80
2023-03-24T13:45:47.720Z,8.80
2023-03-24T13:48:32.720Z,8.80
2023-03-24T13:51:04.653Z,8.70
2023-03-24T13:53:37.623Z,8.70
2023-03-24T13:56:07.542Z,8.70
2023-03-24T13:59:15.003Z,8.80
2023-03-24T14:01:45.387Z,8.80
2023-03-24T14:04:23.803Z,8.80
2023-03-24T14:06:53.775Z,8.80
2023-03-24T14:09:23.537Z,8.80
2023-03-24T14:12:09.497Z,8.80
2023-03-24T14:14:58.611Z,8.80
2023-03-24T14:17:26.693Z,8.70
2023-03-24T14:20:14.900Z,8.90
2023-03-24T14:22:48.045Z,8.90
2023-03-24T14:25:24.870Z,8.90
2023-03-24T14:27:53.651Z,8.90
2023-03-24T14:30:24.930Z,8.80
2023-03-24T14:32:55.914Z,8.90
2023-03-24T14:35:37.861Z,8.90
2023-03-24T14:38:19.778Z,8.90
2023-03-24T14:40:50.852Z,8.90
2023-03-24T14:43:23.130Z,8.90
2023-03-24T14:46:01.479Z,8.90
2023-03-24T14:48:43.712Z,8.80
2023-03-24T14:51:36.145Z,8.80
2023-03-24T14:54:07.278Z,8.80
2023-03-24T14:56:41.068Z,9.40
2023-03-24T14:59:19.434Z,8.90
2023-03-24T15:01:50.903Z,8.90
2023-03-24T15:04:18.869Z,8.90
2023-03-24T15:06:49.083Z,8.90
2023-03-24T15:09:18.525Z,8.90
2023-03-24T15:11:48.502Z,8.90
2023-03-24T15:14:24.640Z,8.90
2023-03-24T15:16:55.729Z,8.90
2023-03-24T15:19:25.643Z,8.90
2023-03-24T15:22:01.734Z,8.90
2023-03-24T15:24:33.865Z,8.90
2023-03-24T15:27:24.498Z,8.90
2023-03-24T15:29:58.971Z,9.00
2023-03-24T15:32:31.410Z,8.90
2023-03-24T15:35:01.246Z,8.90
2023-03-24T15:37:35.635Z,8.90
2023-03-24T15:42:43.472Z,8.90
2023-03-24T15:45:20.542Z,9.00
2023-03-24T15:47:52.600Z,9.00
2023-03-24T15:50:32.058Z,9.00
2023-03-24T15:53:04.372Z,9.00
2023-03-24T15:55:34.784Z,9.00
2023-03-24T15:58:20.551Z,9.00
2023-03-24T16:00:50.916Z,9.00
2023-03-24T16:03:19.325Z,9.00
2023-03-24T16:05:51.012Z,9.00
2023-03-24T16:08:28.479Z,9.00
2023-03-24T16:11:01.287Z,9.00
2023-03-24T16:13:29.495Z,9.00
2023-03-24T16:15:59.860Z,9.00
2023-03-24T16:18:32.948Z,9.00
2023-03-24T16:21:01.516Z,9.00
2023-03-24T16:23:31.925Z,9.00
2023-03-24T16:25:59.797Z,9.00
2023-03-24T16:28:27.718Z,9.00
2023-03-24T16:31:00.943Z,9.10
2023-03-24T16:33:30.264Z,9.10
2023-03-24T16:35:58.367Z,9.10
2023-03-24T16:38:26.639Z,9.00
2023-03-24T16:40:57.453Z,9.00
2023-03-24T16:43:27.319Z,9.00
2023-03-24T16:45:55.334Z,9.00
2023-03-24T16:48:23.254Z,9.10
2023-03-24T16:50:53.365Z,9.00
2023-03-24T16:53:21.991Z,9.00
2023-03-24T16:55:49.892Z,9.00
2023-03-24T16:58:19.194Z,9.00
2023-03-24T17:00:49.250Z,9.00
2023-03-24T17:03:18.141Z,9.00
2023-03-24T17:05:48.685Z,9.00
2023-03-24T17:08:18.517Z,9.00
2023-03-24T17:10:48.726Z,9.00
2023-03-24T17:13:21.464Z,8.90
2023-03-24T17:15:50.037Z,9.00
2023-03-24T17:18:18.507Z,9.00
2023-03-24T17:20:48.357Z,9.00
2023-03-24T17:23:18.492Z,8.90
2023-03-24T17:25:46.581Z,8.90
2023-03-24T17:28:15.861Z,8.90
2023-03-24T17:30:45.266Z,8.90
2023-03-24T17:33:14.741Z,8.90
2023-03-24T17:35:45.582Z,8.90
2023-03-24T17:38:16.409Z,8.90
2023-03-24T17:40:44.539Z,8.90
2023-03-24T17:43:12.464Z,9.40
2023-03-24T17:45:41.301Z,8.90
2023-03-24T17:48:10.565Z,8.90
2023-03-24T17:50:38.473Z,8.90
2023-03-24T17:53:07.284Z,8.90
2023-03-24T17:55:35.630Z,8.90
2023-03-24T17:58:06.020Z,9.00
2023-03-24T18:00:34.031Z,8.90
2023-03-24T18:03:01.973Z,8.90
2023-03-24T18:05:31.266Z,9.00
2023-03-24T18:07:59.174Z,9.00
2023-03-24T18:10:27.111Z,8.90
2023-03-24T18:12:55.895Z,9.00
2023-03-24T18:15:25.685Z,9.00
2023-03-24T18:17:53.985Z,9.10
2023-03-24T18:20:22.019Z,9.60
2023-03-24T18:22:52.158Z,9.10
2023-03-24T18:25:20.496Z,9.00
2023-03-24T18:27:48.464Z,9.00
2023-03-24T18:30:17.483Z,8.90
2023-03-24T18:32:45.693Z,9.00
2023-03-24T18:35:17.027Z,9.00
2023-03-24T18:37:45.170Z,9.00
2023-03-24T18:40:15.630Z,9.00
2023-03-24T18:42:43.724Z,9.00
2023-03-24T18:45:17.279Z,9.00
2023-03-24T18:47:45.937Z,9.00
2023-03-24T18:50:13.982Z,9.00
2023-03-24T18:52:41.918Z,9.00
2023-03-24T18:55:11.073Z,8.90
2023-03-24T18:57:41.118Z,9.00
2023-03-24T19:00:13.008Z,9.00
2023-03-24T19:02:41.082Z,9.00
2023-03-24T19:05:10.737Z,8.90
2023-03-24T19:07:38.616Z,9.00
2023-03-24T19:10:07.438Z,8.90
2023-03-24T19:12:35.415Z,8.90
2023-03-24T19:15:05.658Z,9.00
2023-03-24T19:17:33.690Z,8.90
2023-03-24T19:20:04.063Z,9.00
2023-03-24T19:22:31.946Z,9.00
2023-03-24T19:24:59.858Z,8.80
2023-03-24T19:27:27.946Z,8.90
2023-03-24T19:29:56.886Z,9.00
2023-03-24T19:32:26.117Z,8.90
2023-03-24T19:34:54.012Z,8.90
2023-03-24T19:37:23.039Z,8.90
2023-03-24T19:39:52.860Z,8.90
2023-03-24T19:42:22.615Z,8.90
2023-03-24T19:44:59.637Z,8.80
2023-03-24T19:47:28.909Z,8.90
2023-03-24T19:49:57.150Z,8.90
2023-03-24T19:52:25.127Z,8.80
2023-03-24T19:54:53.116Z,8.80
2023-03-24T19:57:21.835Z,8.80
2023-03-24T19:59:50.106Z,8.80
2023-03-24T20:02:20.854Z,8.80
2023-03-24T20:04:50.766Z,8.90
2023-03-24T20:07:19.144Z,8.80
2023-03-24T20:09:47.048Z,8.90
2023-03-24T20:12:15.020Z,8.80
2023-03-24T20:14:45.522Z,9.40
2023-03-24T20:17:18.593Z,8.80
2023-03-24T20:19:47.580Z,8.90
2023-03-24T20:22:17.345Z,8.80
2023-03-24T20:24:47.678Z,8.80
2023-03-24T20:27:16.970Z,8.80
2023-03-24T20:29:45.875Z,8.80
2023-03-24T20:32:13.959Z,8.80
2023-03-24T20:34:42.337Z,8.70
2023-03-24T20:37:10.729Z,8.70
2023-03-24T20:39:43.274Z,8.80
2023-03-24T20:42:11.207Z,8.80
2023-03-24T20:44:39.435Z,8.80
2023-03-24T20:47:07.456Z,8.80
2023-03-24T20:49:35.447Z,8.70
2023-03-24T20:52:03.355Z,8.70
2023-03-24T20:54:32.182Z,8.80
2023-03-24T20:57:02.410Z,8.70
2023-03-24T20:59:30.386Z,8.80
2023-03-24T21:01:58.549Z,8.70
2023-03-24T21:04:26.501Z,8.70
2023-03-24T21:06:55.073Z,8.80
2023-03-24T21:09:24.489Z,8.80
2023-03-24T21:11:52.764Z,8.80
2023-03-24T21:14:22.131Z,8.70
2023-03-24T21:16:50.126Z,8.70
2023-03-24T21:19:18.662Z,8.80
2023-03-24T21:21:49.366Z,8.80
2023-03-24T21:24:17.359Z,8.80
2023-03-24T21:26:46.287Z,8.80
2023-03-24T21:29:14.692Z,8.80
2023-03-24T21:31:43.927Z,8.80
2023-03-24T21:34:12.272Z,8.70
2023-03-24T21:36:40.495Z,8.70
2023-03-24T21:39:10.175Z,8.70
2023-03-24T21:41:38.735Z,8.70
2023-03-24T21:44:09.148Z,8.70
2023-03-24T21:46:37.365Z,8.70
2023-03-24T21:49:10.870Z,8.70
2023-03-24T21:51:38.807Z,8.70
2023-03-24T21:54:08.780Z,8.70
2023-03-24T21:56:37.873Z,8.70
2023-03-24T21:59:06.076Z,8.70
2023-03-24T22:01:36.145Z,8.70
2023-03-24T22:04:04.615Z,8.70
2023-03-24T22:06:37.820Z,8.70
2023-03-24T22:09:07.681Z,8.60
2023-03-24T22:11:35.934Z,8.70
2023-03-24T22:14:04.342Z,8.60
2023-03-24T22:16:32.958Z,8.60
2023-03-24T22:19:01.490Z,8.60
2023-03-24T22:21:29.480Z,8.60
2023-03-24T22:23:58.787Z,8.60
2023-03-24T22:26:26.702Z,8.60
2023-03-24T22:28:56.103Z,8.60
2023-03-24T22:31:24.577Z,8.60
2023-03-24T22:33:52.745Z,8.60
2023-03-24T22:36:20.818Z,8.60
2023-03-24T22:38:48.729Z,8.60
2023-03-24T22:41:17.991Z,8.60
2023-03-24T22:43:46.135Z,8.60
2023-03-24T22:46:14.108Z,8.60
2023-03-24T22:48:42.037Z,8.60
2023-03-24T22:51:12.445Z,8.60
2023-03-24T22:53:41.498Z,8.60
2023-03-24T22:56:09.789Z,8.60
2023-03-24T22:58:40.070Z,8.60
2023-03-24T23:01:09.697Z,8.60
2023-03-24T23:03:37.695Z,8.60
2023-03-24T23:06:06.019Z,8.60
2023-03-24T23:08:34.754Z,8.70
2023-03-24T23:11:02.781Z,8.60
2023-03-24T23:13:30.809Z,8.70
2023-03-24T23:16:00.173Z,8.70
2023-03-24T23:18:28.170Z,8.60
2023-03-24T23:21:04.073Z,8.70
2023-03-24T23:23:32.093Z,8.60
2023-03-24T23:26:00.144Z,8.60
2023-03-24T23:28:28.243Z,8.60
2023-03-24T23:30:56.173Z,8.60
2023-03-24T23:33:25.726Z,8.60
2023-03-24T23:35:57.921Z,8.60
2023-03-24T23:38:26.448Z,8.60
2023-03-24T23:40:54.393Z,8.60
2023-03-24T23:43:22.294Z,8.60
2023-03-24T23:45:50.387Z,8.60
2023-03-24T23:48:18.392Z,8.60
2023-03-24T23:50:49.388Z,8.60
2023-03-24T23:53:17.292Z,8.60
2023-03-24T23:55:47.996Z,8.60
2023-03-24T23:58:16.107Z,8.50
